Baevo, Russia
Current Conditions -  °F | °C
As of 3:00 AM on Thursday 29 Jan 2015 (Local Time) from UNBB Reporting Station
Blowing Snow Blowing Snow  
Wind Chill: -6°   Ceiling: 4000
Heat Index: 10°   Visibility: 6mi
Dew Point:   Wind: 16mph
Humidity: 62%   Direction: 220°SW
Pressure: 30.48"   Gusts: NA
Location:  53.27°N, 80.77°E
Report Text: UNBB 282000Z 22007MPS 9999 DRSN BKN040 M12/M18 Q1032 NOSIG RMKQFE751/1002 24400560
Loading
Personal Weather Stations






























Interactive Weather Map New forecast layout! Learn more

10-Day Weather Forecast

Advertisements
Track Severe Weather on mobile